.
WxDataArchive / Data Records for 2013-09-10
2013-09-09 September 2013 2013-09-11

Data Records for Tuesday, 10 September 2013

Time	Temp	Chill	HIndex	Humid	Dewpt	 Wind 	HiWind	WindDir	Rain 	Barom 
-----	----	-----	------	-----	-----	------	------	-------	-----	----- 
00:00	79.8	79.8	82.9	72	69.9	0	2	270	0.00	29.912 
00:05	79.9	79.9	83.0	72	70.0	0	1	270	0.00	29.912 
00:10	80.1	80.1	83.4	72	70.2	0	1	270	0.00	29.912 
00:15	80.1	80.1	83.4	72	70.2	0	2	270	0.00	29.904 
00:20	80.3	80.3	83.7	72	70.4	0	2	270	0.00	29.904 
00:25	80.3	80.3	83.7	72	70.4	0	1	270	0.00	29.904 
00:30	80.3	80.3	83.6	71	70.0	0	3	270	0.00	29.906 
00:35	80.5	80.5	83.9	71	70.2	0	2	270	0.00	29.906 
00:40	80.5	80.5	83.9	71	70.2	0	2	270	0.00	29.906 
00:45	80.3	80.3	83.6	71	70.0	0	3	270	0.00	29.906 
00:50	80.3	80.3	83.7	72	70.4	1	2	270	0.00	29.906 
00:55	80.3	80.3	83.7	72	70.4	0	3	315	0.00	29.906 
01:00	80.1	80.1	83.4	72	70.2	0	2	270	0.00	29.905 
01:05	80.1	80.1	83.4	72	70.2	0	2	270	0.00	29.905 
01:10	79.9	79.9	83.1	73	70.4	0	2	270	0.00	29.905 
01:15	79.8	79.8	83.0	73	70.4	0	1	270	0.00	29.900 
01:20	79.6	79.6	82.6	73	70.2	0	3	270	0.00	29.900 
01:25	79.6	79.6	82.7	74	70.6	0	1	315	0.00	29.900 
01:30	79.4	79.4	82.4	74	70.4	0	2	248	0.00	29.903 
01:35	79.2	79.2	82.1	75	70.6	0	2	315	0.00	29.903 
01:40	79.0	79.0	81.8	75	70.4	0	3	270	0.00	29.903 
01:45	79.0	79.0	81.9	76	70.8	0	1	292	0.00	29.904 
01:50	78.8	78.8	81.5	76	70.6	0	2	292	0.00	29.904 
01:55	78.6	78.6	81.2	76	70.4	0	3	292	0.00	29.904 
02:00	78.5	78.5	81.1	77	70.7	0	1	292	0.00	29.907 
02:05	78.5	78.5	81.1	77	70.7	0	1	292	0.00	29.907 
02:10	78.3	78.3	80.7	77	70.5	0	1	292	0.00	29.907 
02:15	78.3	78.3	80.8	78	70.9	0	2	270	0.00	29.908 
02:20	78.1	78.1	80.4	78	70.7	0	2	292	0.00	29.908 
02:25	78.1	78.1	80.4	78	70.7	0	2	338	0.00	29.908 
02:30	77.9	77.9	80.1	79	70.8	0	1	338	0.00	29.913 
02:35	77.9	77.9	80.1	79	70.8	0	1	338	0.00	29.913 
02:40	77.7	77.7	79.8	79	70.7	0	1	338	0.00	29.913 
02:45	77.7	77.7	79.8	80	71.0	0	1	338	0.00	29.913 
02:50	77.7	77.7	79.8	80	71.0	0	1	338	0.00	29.913 
02:55	77.6	77.6	79.6	80	70.9	0	2	338	0.00	29.913 
03:00	77.6	77.6	79.6	80	70.9	0	1	338	0.00	29.916 
03:05	77.6	77.6	79.6	81	71.3	0	1	338	0.00	29.916 
03:10	77.6	77.6	79.6	81	71.3	0	1	338	0.00	29.916 
03:15	77.4	77.4	79.2	81	71.1	0	1	338	0.00	29.918 
03:20	77.4	77.4	79.2	81	71.1	0	1	338	0.00	29.918 
03:25	77.4	77.4	79.2	81	71.1	0	2	338	0.00	29.918 
03:30	77.4	77.4	79.2	81	71.1	0	2	270	0.00	29.919 
03:35	77.4	77.4	79.2	82	71.5	0	1	270	0.00	29.919 
03:40	77.2	77.2	78.9	82	71.3	0	1	270	0.00	29.919 
03:45	77.2	77.2	78.9	82	71.3	0	2	270	0.00	29.921 
03:50	77.2	77.2	78.9	82	71.3	0	1	292	0.00	29.921 
03:55	77.2	77.2	78.9	82	71.3	0	2	292	0.00	29.921 
04:00	77.0	77.0	78.5	83	71.4	0	3	248	0.00	29.925 
04:05	77.0	77.0	78.5	83	71.4	0	2	248	0.00	29.925 
04:10	77.0	77.0	78.5	83	71.4	0	2	292	0.00	29.925 
04:15	77.0	77.0	78.5	83	71.4	0	2	248	0.00	29.928 
04:20	77.0	77.0	78.5	83	71.4	0	1	248	0.00	29.928 
04:25	77.0	77.0	78.5	83	71.4	0	1	248	0.00	29.928 
04:30	76.8	76.8	78.1	83	71.2	0	3	248	0.00	29.931 
04:35	76.8	76.8	78.1	83	71.2	0	2	292	0.00	29.931 
04:40	76.8	76.8	78.1	83	71.2	0	1	292	0.00	29.931 
04:45	76.7	76.7	77.9	84	71.5	0	1	292	0.00	29.931 
04:50	76.7	76.7	77.9	84	71.5	0	1	292	0.00	29.931 
04:55	76.7	76.7	77.9	84	71.5	0	1	292	0.00	29.931 
05:00	76.5	76.5	77.5	84	71.3	0	1	292	0.00	29.932 
05:05	76.5	76.5	77.5	84	71.3	0	1	292	0.00	29.932 
05:10	76.5	76.5	77.5	84	71.3	0	2	292	0.00	29.932 
05:15	76.5	76.5	77.5	84	71.3	0	1	292	0.00	29.934 
05:20	76.5	76.5	77.5	84	71.3	0	2	292	0.00	29.934 
05:25	76.5	76.5	77.5	84	71.3	0	1	292	0.00	29.934 
05:30	76.5	76.5	77.5	84	71.3	0	1	315	0.00	29.943 
05:35	76.5	76.5	77.5	84	71.3	0	1	315	0.00	29.943 
05:40	76.5	76.5	77.5	84	71.3	0	1	315	0.00	29.943 
05:45	76.3	76.3	77.2	84	71.1	0	1	315	0.00	29.949 
05:50	76.1	76.1	76.8	84	70.9	0	1	315	0.00	29.949 
05:55	76.1	76.1	76.8	84	70.9	0	1	315	0.00	29.949 
06:00	76.1	76.1	76.7	85	71.2	0	2	315	0.00	29.953 
06:05	76.0	76.0	76.6	85	71.2	0	1	315	0.00	29.953 
06:10	76.0	76.0	76.6	85	71.2	0	1	315	0.00	29.953 
06:15	75.8	75.8	76.2	85	71.0	0	1	315	0.00	29.961 
06:20	75.8	75.8	76.2	85	71.0	0	1	315	0.00	29.961 
06:25	75.6	75.6	75.9	85	70.8	0	1	315	0.00	29.961 
06:30	75.6	75.6	75.9	85	70.8	0	1	315	0.00	29.965 
06:35	75.6	75.6	75.8	86	71.1	0	2	315	0.00	29.965 
06:40	75.6	75.6	75.8	86	71.1	0	1	315	0.00	29.965 
06:45	75.6	75.6	75.8	86	71.1	0	1	315	0.00	29.967 
06:50	75.6	75.6	75.8	86	71.1	0	2	315	0.00	29.967 
06:55	75.6	75.6	75.8	86	71.1	0	1	315	0.00	29.967 
07:00	75.4	75.4	75.4	86	70.9	0	1	315	0.00	29.968 
07:05	75.4	75.4	75.4	86	70.9	0	1	315	0.00	29.968 
07:10	75.4	75.4	75.4	86	70.9	0	1	315	0.00	29.968 
07:15	75.4	75.4	75.4	86	70.9	0	1	315	0.00	29.978 
07:20	75.4	75.4	75.4	86	70.9	0	1	315	0.00	29.978 
07:25	75.4	75.4	75.4	86	70.9	0	1	315	0.00	29.978 
07:30	75.4	75.4	75.4	86	70.9	0	1	315	0.00	29.984 
07:35	75.4	75.4	75.4	86	70.9	0	1	315	0.00	29.984 
07:40	75.4	75.4	75.4	86	70.9	0	1	315	0.00	29.984 
07:45	75.4	75.4	75.4	86	70.9	0	1	315	0.00	29.986 
07:50	75.6	75.6	75.8	86	71.1	0	1	315	0.00	29.986 
07:55	75.6	75.6	75.8	86	71.1	0	1	315	0.00	29.986 
08:00	75.8	75.8	76.1	86	71.3	0	1	315	0.00	29.985 
08:05	75.8	75.8	76.1	86	71.3	0	1	315	0.00	29.985 
08:10	76.0	76.0	76.6	85	71.2	0	1	315	0.00	29.985 
08:15	76.1	76.1	76.7	85	71.2	0	3	315	0.00	29.993 
08:20	76.3	76.3	77.2	84	71.1	0	2	315	0.00	29.993 
08:25	76.3	76.3	77.2	84	71.1	0	2	315	0.00	29.993 
08:30	76.3	76.3	77.2	84	71.1	0	2	315	0.00	29.999 
08:35	76.3	76.3	77.2	84	71.1	0	2	315	0.00	29.999 
08:40	76.5	76.5	77.5	84	71.3	0	2	315	0.00	29.999 
08:45	76.7	76.7	77.9	84	71.5	0	2	315	0.00	30.000 
08:50	77.0	77.0	78.5	83	71.4	0	2	315	0.00	30.000 
08:55	77.2	77.2	78.9	82	71.3	0	2	315	0.00	30.000 
09:00	77.6	77.6	79.6	81	71.3	0	2	315	0.00	29.999 
09:05	77.9	77.9	80.1	81	71.6	0	2	315	0.00	29.999 
09:10	78.1	78.1	80.5	80	71.4	0	1	315	0.00	29.999 
09:15	78.3	78.3	80.8	79	71.2	0	2	315	0.00	30.002 
09:20	78.6	78.6	81.4	79	71.5	0	1	315	0.00	30.002 
09:25	79.0	79.0	82.0	78	71.5	0	2	0	0.00	30.002 
09:30	79.2	79.2	82.3	77	71.3	0	1	338	0.00	30.001 
09:35	79.6	79.6	83.1	77	71.7	0	2	338	0.00	30.001 
09:40	79.8	79.8	83.2	75	71.1	1	3	270	0.00	30.001 
09:45	80.1	80.1	83.6	74	71.0	1	3	270	0.00	30.002 
09:50	80.3	80.3	83.9	73	70.8	0	2	270	0.00	30.002 
09:55	80.7	80.7	84.6	73	71.2	1	3	270	0.00	30.002 
10:00	81.1	81.1	85.2	72	71.2	0	2	292	0.00	30.007 
10:05	81.6	81.6	85.7	70	70.8	1	3	292	0.00	30.007 
10:10	82.4	82.4	86.7	68	70.8	0	2	292	0.00	30.007 
10:15	83.0	83.0	87.6	67	70.9	0	2	292	0.00	30.012 
10:20	83.6	83.6	88.2	65	70.6	1	2	292	0.00	30.012 
10:25	83.8	83.8	88.3	64	70.3	2	3	292	0.00	30.012 
10:30	84.0	84.0	88.4	63	70.0	1	4	292	0.00	30.008 
10:35	84.5	84.5	89.0	62	70.0	0	2	292	0.00	30.008 
10:40	85.3	85.3	89.8	60	69.8	1	3	292	0.00	30.008 
10:45	85.7	85.7	89.9	58	69.2	1	3	292	0.00	30.008 
10:50	86.1	86.1	90.2	57	69.1	1	4	292	0.00	30.008 
10:55	86.7	86.7	91.0	56	69.1	1	3	270	0.00	30.008 
11:00	87.2	87.2	90.8	53	67.9	2	4	270	0.00	30.009 
11:05	87.4	87.4	91.1	53	68.1	1	3	270	0.00	30.009 
11:10	87.8	87.8	91.4	52	67.9	2	5	270	0.00	30.009 
11:15	87.8	87.8	91.4	52	67.9	2	5	270	0.00	30.009 
11:20	88.0	88.0	91.8	52	68.1	1	5	270	0.00	30.009 
11:25	88.2	88.2	92.1	52	68.3	2	5	292	0.00	30.009 
11:30	88.4	88.4	92.1	51	67.9	2	4	292	0.00	30.008 
11:35	88.8	88.8	92.4	50	67.7	1	4	270	0.00	30.008 
11:40	89.3	89.3	93.3	50	68.2	1	3	270	0.00	30.008 
11:45	89.9	89.9	94.0	49	68.1	1	3	270	0.00	30.003 
11:50	90.1	90.1	93.9	48	67.7	1	4	270	0.00	30.003 
11:55	90.3	90.3	93.8	47	67.3	1	3	270	0.00	30.003 
12:00	90.7	90.7	94.5	47	67.7	1	3	315	0.00	30.003 
12:05	91.0	91.0	94.2	45	66.7	1	3	315	0.00	30.003 
12:10	91.4	91.4	94.9	45	67.0	1	3	292	0.00	30.003 
12:15	91.6	91.6	95.3	45	67.2	1	4	270	0.00	30.000 
12:20	91.8	91.8	94.7	43	66.1	1	3	292	0.00	30.000 
12:25	92.1	92.1	94.8	42	65.7	2	5	270	0.00	30.000 
12:30	92.3	92.3	94.7	41	65.1	2	5	315	0.00	29.998 
12:35	92.7	92.7	95.4	41	65.5	2	5	270	0.00	29.998 
12:40	92.7	92.7	94.5	39	64.1	2	5	270	0.00	29.998 
12:45	92.9	92.9	94.8	39	64.2	2	6	270	0.00	29.999 
12:50	92.9	92.9	94.0	37	62.7	2	4	270	0.00	29.999 
12:55	93.2	93.2	94.9	38	63.8	3	6	270	0.00	29.999 
13:00	93.4	93.4	94.8	37	63.2	2	5	292	0.00	29.996 
13:05	93.8	93.8	95.4	37	63.5	2	4	315	0.00	29.996 
13:10	94.0	94.0	94.9	35	62.1	3	5	292	0.00	29.996 
13:15	94.0	94.0	94.9	35	62.1	2	5	270	0.00	29.997 
13:20	94.5	94.5	95.7	35	62.6	1	6	270	0.00	29.997 
13:25	94.5	94.5	94.8	33	60.9	2	5	270	0.00	29.997 
13:30	94.7	94.7	95.1	33	61.1	2	4	270	0.00	29.992 
13:35	94.7	94.7	94.7	32	60.2	3	5	270	0.00	29.992 
13:40	94.7	94.7	94.7	32	60.2	3	6	270	0.00	29.992 
13:45	94.7	94.7	94.7	32	60.2	3	5	270	0.00	29.992 
13:50	94.7	94.7	94.7	32	60.2	3	7	270	0.00	29.992 
13:55	95.1	95.1	94.9	31	59.7	2	5	270	0.00	29.992 
14:00	95.6	95.6	95.3	30	59.2	2	4	270	0.00	29.991 
14:05	95.9	95.9	96.1	31	60.3	2	5	270	0.00	29.991 
14:10	95.9	95.9	95.7	30	59.4	1	4	270	0.00	29.991 
14:15	96.1	96.1	96.0	30	59.6	2	5	270	0.00	29.991 
14:20	96.1	96.1	96.0	30	59.6	1	3	292	0.00	29.991 
14:25	95.6	95.6	94.9	29	58.2	3	5	292	0.00	29.991 
14:30	95.6	95.6	95.3	30	59.2	3	5	292	0.00	29.986 
14:35	95.4	95.4	95.4	31	59.9	2	5	292	0.00	29.986 
14:40	95.9	95.9	96.1	31	60.3	1	3	292	0.00	29.986 
14:45	96.1	96.1	96.5	31	60.5	1	4	270	0.00	29.986 
14:50	96.1	96.1	96.5	31	60.5	3	6	270	0.00	29.986 
14:55	96.1	96.1	96.0	30	59.6	2	5	270	0.00	29.986 
15:00	96.1	96.1	96.0	30	59.6	2	5	270	0.00	29.981 
15:05	96.1	96.1	95.6	29	58.6	2	5	270	0.00	29.981 
15:10	96.1	96.1	96.0	30	59.6	2	4	270	0.00	29.981 
15:15	96.3	96.3	96.3	30	59.8	2	4	292	0.00	29.983 
15:20	96.3	96.3	95.9	29	58.8	2	6	292	0.00	29.983 
15:25	96.3	96.3	95.9	29	58.8	2	4	270	0.00	29.983 
15:30	96.1	96.1	96.0	30	59.6	2	5	248	0.00	29.979 
15:35	96.1	96.1	95.6	29	58.6	2	5	248	0.00	29.979 
15:40	96.6	96.6	95.9	28	58.1	1	4	270	0.00	29.979 
15:45	96.8	96.8	95.8	27	57.2	2	4	270	0.00	29.977 
15:50	97.1	97.1	96.7	28	58.5	2	5	270	0.00	29.977 
15:55	96.8	96.8	96.7	29	59.2	1	5	270	0.00	29.977 
16:00	97.1	97.1	96.3	27	57.5	1	4	270	0.00	29.975 
16:05	97.1	97.1	96.3	27	57.5	2	5	270	0.00	29.975 
16:10	96.8	96.8	96.7	29	59.2	2	5	270	0.00	29.975 
16:15	96.6	96.6	96.8	30	60.0	1	4	248	0.00	29.973 
16:20	96.6	96.6	97.2	31	60.9	1	2	248	0.00	29.973 
16:25	96.3	96.3	95.9	29	58.8	2	7	248	0.00	29.973 
16:30	96.1	96.1	95.6	29	58.6	2	5	270	0.00	29.971 
16:35	95.9	95.9	95.7	30	59.4	1	3	112	0.00	29.971 
16:40	95.9	95.9	95.7	30	59.4	1	4	248	0.00	29.971 
16:45	95.9	95.9	95.7	30	59.4	1	6	270	0.00	29.969 
16:50	95.6	95.6	95.3	30	59.2	1	4	270	0.00	29.969 
16:55	95.6	95.6	95.3	30	59.2	1	4	270	0.00	29.969 
17:00	95.9	95.9	95.3	29	58.5	2	5	270	0.00	29.968 
17:05	95.6	95.6	95.3	30	59.2	2	4	270	0.00	29.968 
17:10	95.4	95.4	95.4	31	59.9	2	5	270	0.00	29.968 
17:15	95.1	95.1	94.6	30	58.7	1	4	270	0.00	29.965 
17:20	95.4	95.4	95.0	30	59.0	1	3	270	0.00	29.965 
17:25	95.1	95.1	94.6	30	58.7	1	4	270	0.00	29.965 
17:30	94.9	94.9	94.6	31	59.5	0	2	270	0.00	29.965 
17:35	94.9	94.9	94.6	31	59.5	0	2	270	0.00	29.965 
17:40	95.1	95.1	94.9	31	59.7	1	3	292	0.00	29.965 
17:45	95.1	95.1	94.9	31	59.7	1	3	270	0.00	29.966 
17:50	94.9	94.9	94.3	30	58.6	1	3	292	0.00	29.966 
17:55	94.9	94.9	94.3	30	58.6	1	4	270	0.00	29.966 
18:00	95.1	95.1	94.9	31	59.7	1	3	270	0.00	29.968 
18:05	94.9	94.9	94.6	31	59.5	1	3	270	0.00	29.968 
18:10	94.5	94.5	94.4	32	60.0	1	4	270	0.00	29.968 
18:15	94.0	94.0	93.7	32	59.6	1	2	270	0.00	29.974 
18:20	93.8	93.8	93.8	33	60.3	0	2	270	0.00	29.974 
18:25	93.6	93.6	93.5	33	60.1	1	2	270	0.00	29.974 
18:30	93.4	93.4	93.2	33	59.9	1	4	270	0.00	29.978 
18:35	93.4	93.4	93.6	34	60.8	0	2	270	0.00	29.978 
18:40	93.2	93.2	92.6	32	58.9	1	2	292	0.00	29.978 
18:45	92.9	92.9	92.1	32	58.6	1	4	270	0.00	29.980 
18:50	92.9	92.9	91.8	31	57.8	1	4	270	0.00	29.980 
18:55	92.7	92.7	91.6	31	57.6	0	2	270	0.00	29.980 
19:00	92.5	92.5	91.3	31	57.4	0	2	270	0.00	29.981 
19:05	92.3	92.3	91.0	31	57.2	0	2	270	0.00	29.981 
19:10	92.3	92.3	91.3	32	58.1	0	1	270	0.00	29.981 
19:15	92.1	92.1	91.1	32	58.0	0	1	270	0.00	29.981 
19:20	91.6	91.6	90.4	32	57.5	0	1	270	0.00	29.981 
19:25	91.4	91.4	90.1	32	57.3	0	1	270	0.00	29.981 
19:30	91.2	91.2	90.2	33	58.0	0	1	270	0.00	29.983 
19:35	90.7	90.7	89.5	33	57.6	0	1	270	0.00	29.983 
19:40	90.5	90.5	89.5	34	58.3	0	1	270	0.00	29.983 
19:45	90.1	90.1	89.0	34	57.9	0	1	270	0.00	29.984 
19:50	89.9	89.9	89.0	35	58.5	0	1	270	0.00	29.984 
19:55	89.5	89.5	88.5	35	58.2	0	0	---	0.00	29.984 
20:00	89.0	89.0	88.1	36	58.5	0	0	---	0.00	29.989 
20:05	88.6	88.6	87.9	37	59.0	0	0	---	0.00	29.989 
20:10	88.2	88.2	87.4	37	58.6	0	0	---	0.00	29.989 
20:15	87.8	87.8	87.1	38	59.0	0	0	---	0.00	29.994 
20:20	87.6	87.6	87.1	39	59.5	0	0	---	0.00	29.994 
20:25	87.4	87.4	87.1	40	60.1	0	0	---	0.00	29.994 
20:30	87.0	87.0	86.6	40	59.7	0	0	---	0.00	30.000 
20:35	86.5	86.5	86.3	41	60.0	0	0	---	0.00	30.000 
20:40	85.9	85.9	85.7	42	60.1	0	0	---	0.00	30.000 
20:45	85.5	85.5	85.5	43	60.4	0	0	---	0.00	30.002 
20:50	85.1	85.1	85.2	44	60.7	0	0	---	0.00	30.002 
20:55	84.9	84.9	85.0	44	60.5	0	0	---	0.00	30.002 
21:00	84.5	84.5	84.9	46	61.4	0	0	---	0.00	30.006 
21:05	84.1	84.1	84.4	46	61.1	0	1	270	0.00	30.006 
21:10	84.0	84.0	84.3	46	61.0	0	0	---	0.00	30.006 
21:15	83.6	83.6	84.1	47	61.2	0	0	---	0.00	30.009 
21:20	83.4	83.4	84.0	48	61.6	0	0	---	0.00	30.009 
21:25	83.2	83.2	83.8	48	61.4	0	0	---	0.00	30.009 
21:30	83.0	83.0	83.5	48	61.3	0	0	---	0.00	30.013 
21:35	82.8	82.8	83.3	48	61.1	0	0	---	0.00	30.013 
21:40	82.6	82.6	83.3	49	61.5	0	0	---	0.00	30.013 
21:45	82.4	82.4	83.2	50	61.9	0	1	270	0.00	30.018 
21:50	82.2	82.2	83.0	50	61.7	0	1	270	0.00	30.018 
21:55	82.4	82.4	83.4	51	62.4	0	2	270	0.00	30.018 
22:00	82.8	82.8	84.2	53	63.9	0	2	270	0.00	30.019 
22:05	83.0	83.0	84.7	54	64.6	0	2	270	0.00	30.019 
22:10	83.0	83.0	84.9	55	65.1	0	2	292	0.00	30.019 
22:15	83.0	83.0	85.1	56	65.7	1	2	248	0.00	30.023 
22:20	82.8	82.8	85.0	57	66.0	0	2	292	0.00	30.023 
22:25	82.8	82.8	85.2	58	66.5	0	2	270	0.00	30.023 
22:30	82.6	82.6	84.9	58	66.3	1	4	292	0.00	30.021 
22:35	82.2	82.2	84.5	59	66.4	0	3	270	0.00	30.021 
22:40	82.0	82.0	84.4	60	66.7	1	3	270	0.00	30.021 
22:45	81.8	81.8	84.1	60	66.5	0	2	315	0.00	30.024 
22:50	81.8	81.8	84.3	61	67.0	0	2	315	0.00	30.024 
22:55	81.6	81.6	84.0	61	66.8	0	2	315	0.00	30.024 
23:00	81.6	81.6	84.2	62	67.3	0	2	315	0.00	30.024 
23:05	81.4	81.4	83.9	62	67.1	0	2	315	0.00	30.024 
23:10	81.4	81.4	83.9	62	67.1	0	1	315	0.00	30.024 
23:15	81.4	81.4	83.9	62	67.1	0	2	315	0.00	30.022 
23:20	81.4	81.4	83.9	62	67.1	0	1	315	0.00	30.022 
23:25	81.4	81.4	83.9	62	67.1	0	2	315	0.00	30.022 
23:30	81.4	81.4	83.9	62	67.1	0	3	292	0.00	30.021 
23:35	81.6	81.6	84.0	61	66.8	1	3	270	0.00	30.021 
23:40	81.4	81.4	83.9	62	67.1	0	2	270	0.00	30.021 
23:45	81.4	81.4	83.9	62	67.1	0	3	68	0.00	30.017 
23:50	81.2	81.2	83.6	62	66.9	0	1	22	0.00	30.017 
23:55	81.2	81.2	83.6	62	66.9	0	2	22	0.00	30.017 

CoCoRaHS
IN-AL-39
A2 Web Hosting
Creative Commons License
GoDaddy
search engine by freefind advanced

loaded 2018-11-17 18:22:49 • last modified 2010-11-18 10:43:29
Privacy PolicyDisclaimer
• wx.awcolley.com is powered by PmWiki v.2002016 •
• all content (unless otherwise noted) © 2018 A W Colley